Airfield :
LOGIN :

Register | Disclaimer

   EN    FR    IT 

 










Legend :    VFR   Marginal VFR   IFR   Intensive IFR   Very Intensive IFR
Visi :
Ceiling :
>= 8 km
>= 3000ft
5 to 8 km
1000 to 3000 ft
1500m to 5 km
500 to 1000 ft
800 to 1500m
200 to 500 ft
< 800m
< 200 ft
Symbols :   Thunderstorms  Fog  Heavy snow  Heavy precipitations  Wind > 20 kt
SIGMETs :     Misc.  Thunderstorms  Icing  Turbulence  Mountain Waves  Volcanic Ashes






- Airport Elevation : 256 ft
- IATA code : CFR


LFRK - Caen

CURRENT METAR :
  • 061500Z AUTO 22020KT 9999 OVC016 11/09 Q1010 TEMPO 3000 RA BKN005 BECMG 26020G35KT

EXPIRED METARs :
  • 061430Z AUTO 22019KT 9999 BKN010 BKN015 OVC020 11/09 Q1010 TEMPO 3000 RA BECMG 26020G35KT
  • 061400Z AUTO 22018KT 8000 -RA OVC011 10/09 Q1011 TEMPO 3000 RA BKN005 BECMG 26020G35KT
  • 061330Z AUTO 22019KT 9999 OVC011 11/09 Q1011 TEMPO 3000 RA BKN005 BECMG 26020G35KT
  • 061300Z AUTO 21020KT 9999 OVC012 11/09 Q1011 TEMPO 3000 RA BKN005 BECMG 20020G35KT
  • 061230Z AUTO 22021KT 9999 OVC013 11/09 Q1011 TEMPO 3000 RA BKN005 BECMG 20020G35KT

TAF TAF LFRK
Valid from the 06 at 15:00 until the 07 at 00:00 UTC


061400Z 0615/0624 20020G35KT 9999 BKN010
TEMPO 0615/0618 3000 RA BKN005
BECMG 0616/0619 26020G35KT BKN030
BECMG 0619/0621 26015G25KT
BECMG 0621/0623 25012KT
Met : +33 2 31 26 68 11



MET'MAP, your aeronautical weather chart ! - Copyright ORBIFLY December 2007 - Disclaimer

ORBIFLY MET'MAP TEAM :

Programming & Development : Alexandra Zaïnal
Concept & original design : Baudouin d'Aumeries
Assistance for programming : Marc-Olivier Méhu
Technical & hardware support : Manuel Goepfert

Contact : metmap@orbifly.com




SOURCES & CREDITS :

   NOAA